This is the latest recevied weather packets stored in our database for station/object KY0TEQ-13. If no packets are shown the sender has not sent any weather packets the latest 10 day(s).
| Time | Temp. | Humidity | Pressure | Rain* | Wind** | Luminosity | Snow |
|---|---|---|---|---|---|---|---|
| 1777637532 | 1.11° C | 53% | 1301 hPa | 0 mm | - | 2 W/m² | - |
| 1777637229 | 1.11° C | 52% | 1301.1 hPa | 0 mm | - | 1 W/m² | - |
| 1777636926 | 1.67° C | 50% | 1301.2 hPa | 0 mm | - | 0 W/m² | - |
| 1777636621 | 1.67° C | 50% | 1301.1 hPa | 0 mm | - | 0 W/m² | - |
| 1777636318 | 1.11° C | 52% | 1301.1 hPa | 0 mm | - | 0 W/m² | - |
| 1777636013 | 1.67° C | 50% | 1301.2 hPa | 0 mm | - | 0 W/m² | - |
| 1777635709 | 1.67° C | 50% | 1301.2 hPa | 0 mm | - | 0 W/m² | - |
| 1777635406 | 1.11° C | 52% | 1301.1 hPa | 0 mm | - | 0 W/m² | - |
| 1777635103 | 1.67° C | 52% | 1301.1 hPa | 0 mm | - | 0 W/m² | - |
| 1777634798 | 1.67° C | 52% | 1301.1 hPa | 0 mm | - | 0 W/m² | - |
| 1777634496 | 1.67° C | 50% | 1300.9 hPa | 0 mm | - | 0 W/m² | - |
| 1777634193 | 1.67° C | 51% | 1301.1 hPa | 0 mm | - | 0 W/m² | - |
| 1777633889 | 1.67° C | 51% | 1301.1 hPa | 0 mm | - | 0 W/m² | - |
| 1777633587 | 1.67° C | 50% | 1301.1 hPa | 0 mm | - | 0 W/m² | - |
| 1777633285 | 1.11° C | 52% | 1300.9 hPa | 0 mm | - | 0 W/m² | - |
| 1777632982 | 0° C | 57% | 1301.2 hPa | 0 mm | - | 0 W/m² | - |
| 1777632678 | 1.67° C | 53% | 1301 hPa | 0 mm | - | 0 W/m² | - |
| 1777632375 | 2.22° C | 49% | 1301.1 hPa | 0 mm | - | 0 W/m² | - |
| 1777632072 | 1.67° C | 51% | 1301.1 hPa | 0 mm | - | 0 W/m² | - |
| 1777631770 | 0.56° C | 55% | 1301 hPa | 0 mm | - | 0 W/m² | - |
| 1777631467 | 1.67° C | 51% | 1301 hPa | 0 mm | - | 0 W/m² | - |
| 1777631164 | 2.78° C | 49% | 1300.7 hPa | 0 mm | - | 0 W/m² | - |
| 1777630862 | 3.33° C | 47% | 1301.1 hPa | 0 mm | - | 0 W/m² | - |
| 1777630557 | 2.78° C | 48% | 1301 hPa | 0 mm | - | 0 W/m² | - |
| 1777630254 | 2.78° C | 48% | 1301 hPa | 0 mm | - | 0 W/m² | - |
* Rain latest hour (hover to see other rain measurements)
** Current wind speed in m/s (hover to see current wind gust speed)